Imogene, Iowa
Current Conditions -  °F | °C
As of 3:15 PM on Friday 31 Oct 2014 (Local Time) from KSDA Reporting Station
Clear Clear  
Wind Chill: 39°   Ceiling: Unl
Heat Index: 45°   Visibility: 10mi
Dew Point: 18°   Wind: 10mph
Humidity: 34%   Direction: 350°N
Pressure: 30.5"   Gusts: NA
Location:  40.88°N, 95.43°W
Report Text: KSDA 312015Z AUTO 35009KT 10SM CLR 07/M08 A3050 RMK AO2
Loading
Personal Weather Stations






























Interactive Weather Map
Tropical Storm Tracking
New forecast layout! Learn more

10-Day Weather Forecast

Advertisements
Track Severe Weather on mobile